createdAt,value
2023-03-29T05:05:11.061Z,35.41
2023-03-29T05:08:11.170Z,35.26
2023-03-29T05:09:11.186Z,35.22
2023-03-29T05:10:12.262Z,35.20
2023-03-29T05:13:11.368Z,35.19
2023-03-29T05:15:11.444Z,35.12
2023-03-29T05:16:11.574Z,35.16
2023-03-29T05:17:12.468Z,35.17
2023-03-29T05:18:12.531Z,35.17
2023-03-29T05:20:11.502Z,35.13
2023-03-29T05:21:12.523Z,35.17
2023-03-29T05:22:12.536Z,35.15
2023-03-29T05:28:11.574Z,35.42
2023-03-29T05:34:11.536Z,35.27
2023-03-29T05:35:11.552Z,35.26
2023-03-29T05:37:11.518Z,35.14
2023-03-29T05:40:11.501Z,35.13
2023-03-29T05:41:12.510Z,35.10
2023-03-29T05:43:11.489Z,35.05
2023-03-29T05:48:11.473Z,35.13
2023-03-29T05:49:12.471Z,35.07
2023-03-29T05:52:11.421Z,35.21
2023-03-29T05:54:11.399Z,35.05
2023-03-29T05:55:11.608Z,35.11
2023-03-29T05:56:11.423Z,35.28
2023-03-29T05:57:11.717Z,35.35
2023-03-29T05:58:12.376Z,35.58
2023-03-29T06:01:11.389Z,35.94
2023-03-29T06:03:20.364Z,36.00
2023-03-29T06:04:12.528Z,36.18
2023-03-29T06:05:12.340Z,36.32
2023-03-29T06:06:12.361Z,36.67
2023-03-29T06:09:11.335Z,36.92
2023-03-29T06:10:12.306Z,37.09
2023-03-29T06:11:12.325Z,37.16
2023-03-29T06:12:11.317Z,37.13
2023-03-29T06:13:12.294Z,37.10
2023-03-29T06:17:11.328Z,37.29
2023-03-29T06:18:12.359Z,37.27
2023-03-29T06:19:12.251Z,37.33
2023-03-29T06:24:11.221Z,37.53
2023-03-29T06:25:12.249Z,37.52
2023-03-29T06:26:12.196Z,37.56
2023-03-29T06:27:12.205Z,37.47
2023-03-29T06:29:11.205Z,37.45
2023-03-29T06:31:11.208Z,37.57
2023-03-29T06:33:11.218Z,37.66
2023-03-29T06:35:11.185Z,37.66
2023-03-29T06:36:12.191Z,37.63
2023-03-29T06:39:11.149Z,37.81
2023-03-29T06:40:12.131Z,37.81
2023-03-29T06:41:12.134Z,37.84
2023-03-29T06:42:20.602Z,37.97
2023-03-29T06:45:11.104Z,37.95
2023-03-29T06:47:11.091Z,38.26
2023-03-29T06:48:12.099Z,38.25
2023-03-29T06:49:11.074Z,38.33
2023-03-29T06:50:11.078Z,38.24
2023-03-29T06:52:11.227Z,38.33
2023-03-29T06:53:12.036Z,38.23
2023-03-29T06:54:12.042Z,38.27
2023-03-29T06:55:12.069Z,38.33
2023-03-29T06:56:12.031Z,38.35
2023-03-29T06:57:12.277Z,38.38
2023-03-29T07:01:10.981Z,38.47
2023-03-29T07:02:12.015Z,38.55
2023-03-29T07:03:11.043Z,38.70
2023-03-29T07:06:10.977Z,39.00
2023-03-29T07:08:11.243Z,37.16
2023-03-29T07:09:11.934Z,36.08
2023-03-29T07:13:10.909Z,36.16
2023-03-29T07:14:11.903Z,36.14
2023-03-29T07:15:11.909Z,35.90
2023-03-29T07:16:11.914Z,36.21
2023-03-29T07:20:10.877Z,36.93
2023-03-29T07:21:11.932Z,37.02
2023-03-29T07:22:11.862Z,37.04
2023-03-29T07:23:11.893Z,37.13
2023-03-29T07:24:11.847Z,37.15
2023-03-29T07:27:10.864Z,37.70
2023-03-29T07:28:11.811Z,37.66
2023-03-29T07:29:11.807Z,37.61
2023-03-29T07:31:10.801Z,37.65
2023-03-29T07:34:10.756Z,37.98
2023-03-29T07:36:10.796Z,37.74
2023-03-29T07:37:11.736Z,37.80
2023-03-29T07:40:10.723Z,38.02
2023-03-29T07:41:11.738Z,38.13
2023-03-29T07:42:11.738Z,38.06
2023-03-29T07:43:11.713Z,38.11
2023-03-29T07:44:11.681Z,38.11
2023-03-29T07:45:11.684Z,38.18
2023-03-29T07:48:10.772Z,38.30
2023-03-29T07:50:10.726Z,38.41
2023-03-29T07:51:11.752Z,38.61
2023-03-29T07:52:12.253Z,38.26
2023-03-29T07:53:11.806Z,38.36
2023-03-29T07:54:11.831Z,37.67
2023-03-29T07:58:10.918Z,37.63
2023-03-29T07:59:11.960Z,37.78
2023-03-29T08:03:11.130Z,38.06
2023-03-29T08:04:12.174Z,38.13
2023-03-29T08:05:12.063Z,38.18
2023-03-29T08:06:12.091Z,38.15
2023-03-29T08:07:12.098Z,38.16
2023-03-29T08:08:12.110Z,38.16
2023-03-29T08:09:12.138Z,38.16
2023-03-29T08:10:12.178Z,38.25
2023-03-29T08:11:11.142Z,38.34
2023-03-29T08:12:12.174Z,38.16
2023-03-29T08:14:11.218Z,38.29
2023-03-29T08:15:12.281Z,38.34
2023-03-29T08:17:11.321Z,38.48
2023-03-29T08:20:11.394Z,38.22
2023-03-29T08:21:12.427Z,38.38
2023-03-29T08:22:12.426Z,38.42
2023-03-29T08:23:12.539Z,38.41
2023-03-29T08:24:12.487Z,38.74
2023-03-29T08:25:12.497Z,38.61
2023-03-29T08:26:12.505Z,38.73
2023-03-29T08:28:11.517Z,39.00
2023-03-29T08:31:11.649Z,39.11
2023-03-29T08:32:12.613Z,39.11
2023-03-29T08:33:12.661Z,39.09
2023-03-29T08:34:12.634Z,39.15
2023-03-29T08:35:12.656Z,39.33
2023-03-29T08:38:11.704Z,39.46
2023-03-29T08:40:11.750Z,39.38
2023-03-29T08:41:11.792Z,39.33
2023-03-29T08:42:13.297Z,39.28
2023-03-29T08:45:11.860Z,39.35
2023-03-29T08:47:11.908Z,39.41
2023-03-29T08:49:11.893Z,39.50
2023-03-29T08:50:11.930Z,39.54
2023-03-29T08:52:11.995Z,39.56
2023-03-29T08:53:13.067Z,39.64
2023-03-29T08:54:13.083Z,39.62
2023-03-29T08:55:13.111Z,39.63
2023-03-29T08:56:13.149Z,39.79
2023-03-29T08:57:12.191Z,39.76
2023-03-29T08:58:13.285Z,39.81
2023-03-29T08:59:12.264Z,39.78
2023-03-29T09:02:12.383Z,39.70
2023-03-29T09:03:13.488Z,39.77
2023-03-29T09:04:13.456Z,39.76
2023-03-29T09:05:13.457Z,39.76
2023-03-29T09:06:13.470Z,39.84
2023-03-29T09:07:13.482Z,39.75
2023-03-29T09:08:13.591Z,39.72
2023-03-29T09:09:13.540Z,39.74
2023-03-29T09:10:13.625Z,39.80
2023-03-29T09:11:13.646Z,39.75
2023-03-29T09:12:13.651Z,39.82
2023-03-29T09:13:13.782Z,39.82
2023-03-29T09:14:13.783Z,39.83
2023-03-29T09:15:13.778Z,39.86
2023-03-29T09:16:13.862Z,39.81
2023-03-29T09:17:12.819Z,39.82
2023-03-29T09:18:13.904Z,39.82
2023-03-29T09:19:13.920Z,39.81
2023-03-29T09:22:12.992Z,39.86
2023-03-29T09:23:14.043Z,39.82
2023-03-29T09:24:14.071Z,39.86
2023-03-29T09:25:14.121Z,39.88
2023-03-29T09:26:14.139Z,39.93
2023-03-29T09:27:14.197Z,39.89
2023-03-29T09:28:14.234Z,39.89
2023-03-29T09:29:14.263Z,39.79
2023-03-29T09:30:14.295Z,39.85
2023-03-29T09:31:14.368Z,39.87
2023-03-29T09:32:14.347Z,39.89
2023-03-29T09:33:14.466Z,39.92
2023-03-29T09:34:15.780Z,39.85
2023-03-29T09:35:14.521Z,39.93
2023-03-29T09:36:14.611Z,39.89
2023-03-29T09:37:13.595Z,39.85
2023-03-29T09:38:13.632Z,39.86
2023-03-29T09:39:14.654Z,39.86
2023-03-29T09:40:14.714Z,39.87
2023-03-29T09:41:14.746Z,39.79
2023-03-29T09:45:13.944Z,39.86
2023-03-29T09:46:14.072Z,39.77
2023-03-29T09:47:15.041Z,39.86
2023-03-29T09:48:15.295Z,39.82
2023-03-29T09:49:16.685Z,39.84
2023-03-29T09:50:27.731Z,39.88
2023-03-29T09:51:15.164Z,39.88
2023-03-29T09:53:14.125Z,39.84
2023-03-29T09:54:15.138Z,39.93
2023-03-29T09:55:15.131Z,39.83
2023-03-29T09:59:14.084Z,39.72
2023-03-29T10:00:15.071Z,39.86
2023-03-29T10:01:14.143Z,39.85
2023-03-29T10:02:14.095Z,39.78
2023-03-29T10:03:15.166Z,39.81
2023-03-29T10:05:14.040Z,39.74
2023-03-29T10:06:15.028Z,39.83
2023-03-29T10:07:15.064Z,39.68
2023-03-29T10:08:16.642Z,39.65
2023-03-29T10:12:14.015Z,39.79
2023-03-29T10:13:15.004Z,39.70
2023-03-29T10:14:15.009Z,39.82
2023-03-29T10:16:14.004Z,39.56
2023-03-29T10:17:14.967Z,39.68
2023-03-29T10:18:14.975Z,39.46
2023-03-29T10:22:13.956Z,39.37
2023-03-29T10:23:13.976Z,39.37
2023-03-29T10:24:13.947Z,39.36
2023-03-29T10:26:33.101Z,39.42
2023-03-29T10:28:52.209Z,39.61
2023-03-29T10:30:52.134Z,39.42
2023-03-29T10:31:52.219Z,39.61
2023-03-29T10:32:53.214Z,39.54
2023-03-29T10:33:53.212Z,39.45
2023-03-29T10:36:52.355Z,39.74
2023-03-29T10:37:53.185Z,39.65
2023-03-29T10:38:53.206Z,39.48
2023-03-29T10:39:53.516Z,39.59
2023-03-29T10:59:27.734Z,40.33
2023-03-29T11:02:46.804Z,39.86
2023-03-29T11:03:47.767Z,39.78
2023-03-29T11:04:46.635Z,39.70
2023-03-29T11:05:47.881Z,39.67
2023-03-29T11:06:46.617Z,39.73
2023-03-29T11:07:46.625Z,39.75
2023-03-29T11:08:47.670Z,39.68
2023-03-29T11:12:46.572Z,39.72
2023-03-29T11:13:47.562Z,39.55
2023-03-29T11:14:47.677Z,39.69
2023-03-29T11:15:47.564Z,39.57
2023-03-29T11:17:46.564Z,39.78
2023-03-29T11:20:46.528Z,39.98
2023-03-29T11:21:47.515Z,39.84
2023-03-29T11:22:46.521Z,39.76
2023-03-29T11:23:46.503Z,39.93
2023-03-29T11:24:47.510Z,39.75
2023-03-29T11:26:46.491Z,39.69
2023-03-29T11:27:47.608Z,39.70
2023-03-29T11:28:47.615Z,39.80
2023-03-29T11:29:47.453Z,40.02
2023-03-29T11:30:47.713Z,39.74
2023-03-29T11:31:46.506Z,38.58
2023-03-29T11:32:47.525Z,38.03
2023-03-29T11:33:47.475Z,38.08
2023-03-29T11:36:46.394Z,39.41
2023-03-29T11:37:47.554Z,38.94
2023-03-29T11:38:47.463Z,38.52
2023-03-29T11:39:47.861Z,38.75
2023-03-29T11:40:47.496Z,38.98
2023-03-29T11:41:47.395Z,38.90
2023-03-29T11:45:46.393Z,39.00
2023-03-29T11:46:47.567Z,39.06
2023-03-29T11:47:47.470Z,39.07
2023-03-29T11:52:46.499Z,39.30
2023-03-29T11:53:47.552Z,39.34
2023-03-29T11:54:47.565Z,39.37
2023-03-29T11:55:47.547Z,39.50
2023-03-29T11:56:47.751Z,39.50
2023-03-29T11:57:47.641Z,39.48
2023-03-29T11:58:47.731Z,39.57
2023-03-29T11:59:47.642Z,39.52
2023-03-29T12:00:47.646Z,39.62
2023-03-29T12:02:46.874Z,39.67
2023-03-29T12:03:47.836Z,39.76
2023-03-29T12:04:47.707Z,39.73
2023-03-29T12:08:46.767Z,39.77
2023-03-29T12:09:47.783Z,39.81
2023-03-29T12:10:47.774Z,39.92
2023-03-29T12:11:47.792Z,39.95
2023-03-29T12:12:47.841Z,39.92
2023-03-29T12:16:46.980Z,39.93
2023-03-29T12:17:47.930Z,39.99
2023-03-29T12:21:47.050Z,40.04
2023-03-29T12:22:48.022Z,39.95
2023-03-29T12:23:48.052Z,40.00
2023-03-29T12:25:47.084Z,40.13
2023-03-29T12:26:48.092Z,40.06
2023-03-29T12:27:48.131Z,40.04
2023-03-29T12:28:48.147Z,40.08
2023-03-29T12:29:48.166Z,40.08
2023-03-29T12:30:48.182Z,40.14
2023-03-29T12:31:48.228Z,40.19
2023-03-29T12:32:48.232Z,40.16
2023-03-29T12:33:48.299Z,40.09
2023-03-29T12:34:48.349Z,40.12
2023-03-29T12:36:47.332Z,40.12
2023-03-29T12:37:48.353Z,40.22
2023-03-29T12:38:48.373Z,40.20
2023-03-29T12:39:48.434Z,40.14
2023-03-29T12:40:48.422Z,40.27
2023-03-29T12:41:48.457Z,40.24
2023-03-29T12:43:47.486Z,40.20
2023-03-29T12:44:48.516Z,40.27
2023-03-29T12:48:47.595Z,40.28
2023-03-29T12:49:47.651Z,40.23
2023-03-29T12:50:48.690Z,40.32
2023-03-29T12:52:47.707Z,40.31
2023-03-29T12:53:48.739Z,40.25
2023-03-29T12:54:48.764Z,40.26
2023-03-29T12:55:48.769Z,40.29
2023-03-29T12:56:48.895Z,40.29
2023-03-29T12:57:48.823Z,40.27
2023-03-29T12:58:48.869Z,40.33
2023-03-29T12:59:48.887Z,40.34
2023-03-29T13:04:48.040Z,40.28
2023-03-29T13:05:49.140Z,40.22
2023-03-29T13:06:50.984Z,40.28
2023-03-29T13:09:48.035Z,40.31
2023-03-29T13:10:49.036Z,40.31
2023-03-29T13:15:48.035Z,40.26
2023-03-29T13:16:49.062Z,40.24
2023-03-29T13:20:47.973Z,40.30
2023-03-29T13:21:48.961Z,40.28
2023-03-29T13:22:48.992Z,40.31
2023-03-29T13:25:47.921Z,40.29
2023-03-29T13:26:48.923Z,40.21
2023-03-29T13:27:48.920Z,40.30
2023-03-29T13:28:47.942Z,40.22
2023-03-29T13:29:48.929Z,40.23
2023-03-29T13:34:47.866Z,40.24
2023-03-29T13:35:48.930Z,40.31
2023-03-29T13:36:48.849Z,40.32
2023-03-29T13:40:48.009Z,40.29
2023-03-29T13:41:48.837Z,40.28
2023-03-29T13:42:48.821Z,40.31
2023-03-29T13:47:58.650Z,40.22
2023-03-29T13:48:48.787Z,40.22
2023-03-29T13:49:51.558Z,40.17
2023-03-29T13:52:47.745Z,40.21
2023-03-29T13:53:48.744Z,40.22
2023-03-29T13:54:47.844Z,40.17
2023-03-29T13:55:48.736Z,40.20
2023-03-29T13:56:48.742Z,40.17
2023-03-29T13:57:48.712Z,40.19
2023-03-29T14:02:49.415Z,40.23
2023-03-29T14:03:48.675Z,40.20
2023-03-29T14:05:47.671Z,40.22
2023-03-29T14:06:48.641Z,40.17
2023-03-29T14:07:48.667Z,40.27
2023-03-29T14:12:47.656Z,40.25
2023-03-29T14:13:48.618Z,40.15
2023-03-29T14:16:47.769Z,40.21
2023-03-29T14:17:48.840Z,40.17
2023-03-29T14:19:47.914Z,40.22
2023-03-29T14:20:48.875Z,40.24
2023-03-29T14:21:48.874Z,40.26
2023-03-29T14:22:48.882Z,40.24
2023-03-29T14:23:48.941Z,40.31
2023-03-29T14:24:48.968Z,40.19
2023-03-29T14:25:49.059Z,40.27
2023-03-29T14:26:49.010Z,40.25
2023-03-29T14:27:49.050Z,40.26
2023-03-29T14:28:49.048Z,40.25
2023-03-29T14:29:49.072Z,40.22
2023-03-29T14:30:49.101Z,40.29
2023-03-29T14:31:49.188Z,40.27
2023-03-29T14:32:49.231Z,40.26
2023-03-29T14:34:48.248Z,40.28
2023-03-29T14:35:49.321Z,40.29
2023-03-29T14:36:49.438Z,40.22
2023-03-29T14:37:49.315Z,40.24
2023-03-29T14:38:49.377Z,40.32
2023-03-29T14:39:49.424Z,40.31
2023-03-29T14:40:49.421Z,40.23
2023-03-29T14:41:49.508Z,40.28
2023-03-29T14:42:49.448Z,40.26
2023-03-29T14:43:49.441Z,40.24
2023-03-29T14:50:48.646Z,40.21
2023-03-29T14:51:49.688Z,40.27
2023-03-29T14:52:51.761Z,40.28
2023-03-29T14:54:48.684Z,40.28
2023-03-29T14:55:49.691Z,40.28
2023-03-29T14:56:48.837Z,40.22
2023-03-29T14:57:49.667Z,40.20
2023-03-29T14:58:49.696Z,40.28
2023-03-29T15:02:48.729Z,40.26
2023-03-29T15:03:49.668Z,40.25
2023-03-29T15:04:49.675Z,40.28
2023-03-29T15:05:49.619Z,40.25
2023-03-29T15:06:48.604Z,40.31
2023-03-29T15:07:49.580Z,40.29
2023-03-29T15:09:02.012Z,40.26
2023-03-29T15:14:48.607Z,42.04
2023-03-29T15:15:49.601Z,40.41
2023-03-29T15:16:49.522Z,39.11
2023-03-29T15:17:51.747Z,39.15
2023-03-29T15:18:49.536Z,39.01
2023-03-29T15:19:49.503Z,38.96
2023-03-29T15:20:49.547Z,38.65
2023-03-29T15:24:48.505Z,39.17
2023-03-29T15:25:49.480Z,39.22
2023-03-29T15:26:49.485Z,39.48
2023-03-29T15:28:48.448Z,39.69
2023-03-29T15:29:49.463Z,39.71
